Time;durP1;ratioP1;P1;durP2;ratioP2;P2;SDS_P1;SDS_P2;PMS_P1;PMS_P2;Temp;Humidity;BMP_temperature;BMP_pressure;BME280_temperature;BME280_humidity;BME280_pressure;Samples;Min_cycle;Max_cycle;Signal;HPM_P1;HPM_P2
2023/09/13 00:02:20;;;;;;;24.10;12.85;;;18.10;99.90;;;;;;5049650;28;20055;-67
2023/09/13 00:04:45;;;;;;;21.25;12.02;;;18.10;99.90;;;;;;5050129;28;20029;-67
2023/09/13 00:07:11;;;;;;;20.75;11.88;;;18.10;99.90;;;;;;5058357;28;20029;-66
2023/09/13 00:09:41;;;;;;;18.25;12.23;;;18.10;99.90;;;;;;5059691;28;20390;-67
2023/09/13 00:12:07;;;;;;;24.98;14.38;;;18.10;99.90;;;;;;5063012;28;20115;-68
2023/09/13 00:14:32;;;;;;;19.58;12.43;;;18.10;99.90;;;;;;5058007;28;20060;-67
2023/09/13 00:16:59;;;;;;;24.00;13.63;;;18.10;99.90;;;;;;5048600;28;20067;-67
2023/09/13 00:19:27;;;;;;;24.45;14.38;;;18.10;99.90;;;;;;5053029;28;20029;-68
2023/09/13 00:21:52;;;;;;;21.83;13.00;;;18.10;99.90;;;;;;5063645;28;20021;-68
2023/09/13 00:24:18;;;;;;;23.15;13.65;;;18.10;99.90;;;;;;5056708;28;20071;-67
2023/09/13 00:26:43;;;;;;;22.25;13.15;;;18.10;99.90;;;;;;5062231;28;20426;-68
2023/09/13 00:29:09;;;;;;;25.25;14.15;;;18.10;99.90;;;;;;5045379;28;20028;-66
2023/09/13 00:31:34;;;;;;;28.63;13.73;;;18.10;99.90;;;;;;5051269;28;20040;-68
2023/09/13 00:34:00;;;;;;;23.75;14.45;;;18.10;99.90;;;;;;5049646;28;21539;-67
2023/09/13 00:36:25;;;;;;;21.27;14.27;;;18.10;99.90;;;;;;5060492;28;20032;-67
2023/09/13 00:38:51;;;;;;;29.25;15.40;;;18.20;99.90;;;;;;5041372;28;20025;-67
2023/09/13 00:41:17;;;;;;;20.77;14.25;;;18.20;99.90;;;;;;5060348;28;20086;-67
2023/09/13 00:43:42;;;;;;;27.33;14.82;;;18.20;99.90;;;;;;5060610;28;20651;-67
2023/09/13 00:46:08;;;;;;;23.45;14.70;;;18.20;99.90;;;;;;5062561;28;20029;-67
2023/09/13 00:48:35;;;;;;;25.48;15.65;;;18.20;99.90;;;;;;5053123;28;20389;-67
2023/09/13 00:51:01;;;;;;;26.60;16.25;;;18.30;99.90;;;;;;5055227;28;20033;-67
2023/09/13 00:53:29;;;;;;;23.75;14.95;;;18.30;99.90;;;;;;5051230;28;20029;-67
2023/09/13 00:55:55;;;;;;;29.15;15.98;;;18.30;99.90;;;;;;5049318;28;20044;-68
2023/09/13 00:58:21;;;;;;;26.98;15.98;;;18.20;99.90;;;;;;5043641;28;20103;-67
2023/09/13 01:00:49;;;;;;;26.58;15.38;;;18.30;99.90;;;;;;5035187;28;20593;-67
2023/09/13 01:03:16;;;;;;;27.02;15.13;;;18.20;99.90;;;;;;5053494;28;20041;-67
2023/09/13 01:05:44;;;;;;;25.05;14.80;;;18.20;99.90;;;;;;5055141;28;20021;-67
2023/09/13 01:08:09;;;;;;;25.45;14.50;;;18.30;99.90;;;;;;5053102;28;20035;-67
2023/09/13 01:10:35;;;;;;;18.92;11.55;;;18.20;99.90;;;;;;5059822;28;20033;-68
2023/09/13 01:13:00;;;;;;;18.35;11.63;;;18.30;99.90;;;;;;5060015;28;20513;-67
2023/09/13 01:15:35;;;;;;;13.68;9.60;;;18.30;99.90;;;;;;5064429;28;20398;-67
2023/09/13 01:18:04;;;;;;;16.33;10.02;;;18.30;99.90;;;;;;5060585;28;20489;-67
2023/09/13 01:20:30;;;;;;;17.73;10.68;;;18.20;99.90;;;;;;5053239;28;20433;-67
2023/09/13 01:23:13;;;;;;;15.13;10.85;;;18.30;99.90;;;;;;5054135;28;20039;-67
2023/09/13 01:26:06;;;;;;;20.67;11.85;;;18.20;99.90;;;;;;5058306;28;20099;-67
2023/09/13 01:28:48;;;;;;;19.13;12.80;;;18.20;99.90;;;;;;5059868;28;20032;-67
2023/09/13 01:31:20;;;;;;;21.83;12.10;;;18.20;99.90;;;;;;5063146;28;20251;-68
2023/09/13 01:33:46;;;;;;;22.40;13.68;;;18.20;99.90;;;;;;5051051;28;20028;-67
2023/09/13 01:36:12;;;;;;;26.55;13.85;;;18.20;99.90;;;;;;5054028;28;20032;-67
2023/09/13 01:38:38;;;;;;;27.42;15.70;;;18.20;99.90;;;;;;5053614;28;20090;-67
2023/09/13 01:41:25;;;;;;;27.08;16.10;;;18.20;99.90;;;;;;5049882;28;20482;-67
2023/09/13 01:43:54;;;;;;;31.05;16.55;;;18.20;99.90;;;;;;5055099;28;20138;-67
2023/09/13 01:46:27;;;;;;;32.40;17.42;;;18.20;99.90;;;;;;5052680;28;20460;-67
2023/09/13 01:48:58;;;;;;;33.60;17.52;;;18.20;99.90;;;;;;5047441;28;20766;-67
2023/09/13 01:51:26;;;;;;;32.22;16.50;;;18.20;99.90;;;;;;5050604;28;20040;-67
2023/09/13 01:53:54;;;;;;;28.83;16.50;;;18.20;99.90;;;;;;5057385;28;20558;-68
2023/09/13 01:56:21;;;;;;;37.40;18.27;;;18.20;99.90;;;;;;5057022;28;20028;-67
2023/09/13 01:58:50;;;;;;;33.00;17.23;;;18.20;99.90;;;;;;5051916;28;20016;-67
2023/09/13 02:01:17;;;;;;;29.35;16.27;;;18.20;99.90;;;;;;5043840;28;20021;-68
2023/09/13 02:03:43;;;;;;;31.45;16.20;;;18.20;99.90;;;;;;5050379;28;20107;-67
2023/09/13 02:06:09;;;;;;;33.50;16.33;;;18.20;99.90;;;;;;5051059;28;20035;-67
2023/09/13 02:08:35;;;;;;;29.52;16.30;;;18.20;99.90;;;;;;5053614;28;20028;-68
2023/09/13 02:11:00;;;;;;;39.05;17.45;;;18.20;99.90;;;;;;5053633;28;20460;-67
2023/09/13 02:13:26;;;;;;;32.75;18.42;;;18.20;99.90;;;;;;5050999;28;20053;-67
2023/09/13 02:15:51;;;;;;;27.45;17.63;;;18.20;99.90;;;;;;5049621;28;20379;-67
2023/09/13 02:18:17;;;;;;;31.73;17.80;;;18.20;99.90;;;;;;5052270;28;20394;-68
2023/09/13 02:20:44;;;;;;;43.35;21.10;;;18.20;99.90;;;;;;5050512;28;20025;-67
2023/09/13 02:23:09;;;;;;;33.45;18.00;;;18.20;99.90;;;;;;5055694;28;20063;-67
2023/09/13 02:25:36;;;;;;;40.88;19.65;;;18.20;99.90;;;;;;5038161;28;20056;-67
2023/09/13 02:28:03;;;;;;;39.55;20.65;;;18.20;99.90;;;;;;5054918;28;20024;-67
2023/09/13 02:30:29;;;;;;;37.45;19.70;;;18.20;99.90;;;;;;5051537;28;20108;-66
2023/09/13 02:32:55;;;;;;;43.42;21.67;;;18.20;99.90;;;;;;5055403;28;20540;-67
2023/09/13 02:35:20;;;;;;;38.15;19.73;;;18.20;99.90;;;;;;5051914;28;20028;-68
2023/09/13 02:37:47;;;;;;;36.13;21.25;;;18.30;99.90;;;;;;5050387;28;20024;-67
2023/09/13 02:40:13;;;;;;;36.05;20.17;;;18.20;99.90;;;;;;5057925;28;20039;-67
2023/09/13 02:42:39;;;;;;;39.33;20.40;;;18.20;99.90;;;;;;5041785;28;20029;-67
2023/09/13 02:45:05;;;;;;;44.88;21.42;;;18.20;99.90;;;;;;5057930;28;20032;-67
2023/09/13 02:47:31;;;;;;;45.55;22.55;;;18.20;99.90;;;;;;5053235;28;20029;-67
2023/09/13 02:49:56;;;;;;;45.60;21.75;;;18.20;99.90;;;;;;5047411;28;20091;-67
2023/09/13 02:52:30;;;;;;;43.70;23.10;;;18.20;99.90;;;;;;5051603;28;20565;-67
2023/09/13 02:54:57;;;;;;;44.13;22.58;;;18.20;99.90;;;;;;5056901;28;20035;-68
2023/09/13 02:57:23;;;;;;;46.33;21.17;;;18.20;99.90;;;;;;5060365;28;20021;-66
2023/09/13 02:59:49;;;;;;;46.53;22.20;;;18.20;99.90;;;;;;5048324;28;20072;-67
2023/09/13 03:02:14;;;;;;;47.03;22.98;;;18.20;99.90;;;;;;5052545;28;20498;-67
2023/09/13 03:04:40;;;;;;;47.17;21.90;;;18.20;99.90;;;;;;5053832;28;20051;-68
2023/09/13 03:07:06;;;;;;;47.83;23.50;;;18.20;99.90;;;;;;5036479;28;20448;-67
2023/09/13 03:09:31;;;;;;;39.65;21.80;;;18.20;99.90;;;;;;5053936;28;20037;-67
2023/09/13 03:11:57;;;;;;;44.35;22.15;;;18.20;99.90;;;;;;5055393;28;20086;-67
2023/09/13 03:14:22;;;;;;;46.95;22.17;;;18.20;99.90;;;;;;5054857;28;20530;-67
2023/09/13 03:16:48;;;;;;;47.65;23.13;;;18.20;99.90;;;;;;5052246;28;20021;-67
2023/09/13 03:19:14;;;;;;;49.58;23.65;;;18.20;99.90;;;;;;5059611;28;20047;-68
2023/09/13 03:21:41;;;;;;;52.42;22.08;;;18.20;99.90;;;;;;5059315;28;20105;-67
2023/09/13 03:24:07;;;;;;;51.72;23.42;;;18.20;99.90;;;;;;5056488;28;20041;-67
2023/09/13 03:26:33;;;;;;;52.97;25.95;;;18.20;99.90;;;;;;5061747;28;20021;-68
2023/09/13 03:28:58;;;;;;;64.57;28.27;;;18.20;99.90;;;;;;5061772;28;20490;-67
2023/09/13 03:31:25;;;;;;;63.25;27.92;;;18.20;99.90;;;;;;5059309;28;20113;-67
2023/09/13 03:33:54;;;;;;;57.80;28.63;;;18.20;99.90;;;;;;5053264;28;20017;-67
2023/09/13 03:36:20;;;;;;;70.55;28.92;;;18.20;99.90;;;;;;5055142;28;20031;-67
2023/09/13 03:38:46;;;;;;;59.95;27.17;;;18.20;99.90;;;;;;5057720;28;20521;-67
2023/09/13 03:41:18;;;;;;;66.57;31.60;;;18.20;99.90;;;;;;5057265;28;20389;-67
2023/09/13 03:43:44;;;;;;;63.75;29.65;;;18.20;99.90;;;;;;5054240;28;21197;-67
2023/09/13 03:46:09;;;;;;;65.32;30.52;;;18.20;99.90;;;;;;5065582;28;20119;-67
2023/09/13 03:48:37;;;;;;;75.25;32.17;;;18.20;99.90;;;;;;5052685;28;20505;-67
2023/09/13 03:51:03;;;;;;;72.57;30.20;;;18.20;99.90;;;;;;5035545;28;20032;-67
2023/09/13 03:53:29;;;;;;;71.95;31.85;;;18.20;99.90;;;;;;5055010;28;20054;-67
2023/09/13 03:55:55;;;;;;;74.15;31.70;;;18.20;99.90;;;;;;5054060;28;20516;-67
2023/09/13 03:58:21;;;;;;;76.22;32.15;;;18.20;99.90;;;;;;5057628;28;20512;-67
2023/09/13 04:00:47;;;;;;;65.55;30.13;;;18.20;99.90;;;;;;5053543;28;20348;-66
2023/09/13 04:03:18;;;;;;;76.57;32.25;;;18.20;99.90;;;;;;5052189;28;20048;-66
2023/09/13 04:05:43;;;;;;;75.82;33.35;;;18.20;99.90;;;;;;5055944;28;20111;-68
2023/09/13 04:08:09;;;;;;;77.13;32.50;;;18.20;99.90;;;;;;5060820;28;20123;-66
2023/09/13 04:10:34;;;;;;;85.80;33.13;;;18.20;99.90;;;;;;5058894;28;20050;-68
2023/09/13 04:13:00;;;;;;;76.95;33.10;;;18.20;99.90;;;;;;5061301;28;20033;-67
2023/09/13 04:15:26;;;;;;;89.38;35.55;;;18.20;99.90;;;;;;5059704;28;20031;-67
2023/09/13 04:17:51;;;;;;;78.32;32.33;;;18.20;99.90;;;;;;5055669;28;20032;-67
2023/09/13 04:20:17;;;;;;;70.35;30.67;;;18.20;99.90;;;;;;5055191;28;20033;-67
2023/09/13 04:22:42;;;;;;;76.15;32.20;;;18.20;99.90;;;;;;5065525;28;20500;-67
2023/09/13 04:25:08;;;;;;;91.97;33.55;;;18.20;99.90;;;;;;5064056;28;20029;-67
2023/09/13 04:27:34;;;;;;;72.90;33.25;;;18.20;99.90;;;;;;5036690;28;20040;-66
2023/09/13 04:30:00;;;;;;;83.88;34.17;;;18.20;99.90;;;;;;5046158;28;20040;-67
2023/09/13 04:32:26;;;;;;;82.05;33.35;;;18.20;99.90;;;;;;5063267;28;20564;-67
2023/09/13 04:34:52;;;;;;;92.82;34.40;;;18.20;99.90;;;;;;5064733;28;20047;-67
2023/09/13 04:37:18;;;;;;;89.55;33.47;;;18.20;99.90;;;;;;5064956;28;20422;-67
2023/09/13 04:39:44;;;;;;;83.43;33.10;;;18.20;99.90;;;;;;5051210;28;20037;-67
2023/09/13 04:42:11;;;;;;;88.05;33.25;;;18.30;99.90;;;;;;5061352;28;20048;-67
2023/09/13 04:44:37;;;;;;;87.57;34.92;;;18.30;99.90;;;;;;5058763;28;20036;-67
2023/09/13 04:47:02;;;;;;;84.38;33.65;;;18.30;99.90;;;;;;5061286;28;20398;-67
2023/09/13 04:49:28;;;;;;;86.35;33.55;;;18.30;99.90;;;;;;5055577;28;20759;-67
2023/09/13 04:51:56;;;;;;;82.07;31.33;;;18.30;99.90;;;;;;5061037;28;20375;-67
2023/09/13 04:54:22;;;;;;;83.90;33.13;;;18.30;99.90;;;;;;5052269;28;20108;-67
2023/09/13 04:56:48;;;;;;;83.75;33.80;;;18.20;99.90;;;;;;5055489;28;20020;-68
2023/09/13 04:59:14;;;;;;;78.53;33.05;;;18.20;99.90;;;;;;5055088;28;20024;-67
2023/09/13 05:01:40;;;;;;;81.13;33.85;;;18.20;99.90;;;;;;5052067;28;20469;-68
2023/09/13 05:04:05;;;;;;;88.00;35.63;;;18.20;99.90;;;;;;5054568;28;20067;-68
2023/09/13 05:06:31;;;;;;;86.00;34.63;;;18.20;99.90;;;;;;5055446;28;20460;-67
2023/09/13 05:08:56;;;;;;;90.68;34.50;;;18.20;99.90;;;;;;5060280;28;20043;-67
2023/09/13 05:11:23;;;;;;;87.30;34.85;;;18.20;99.90;;;;;;5064287;28;20436;-66
2023/09/13 05:13:49;;;;;;;88.07;35.42;;;18.20;99.90;;;;;;5053047;28;20029;-67
2023/09/13 05:16:19;;;;;;;84.47;35.25;;;18.20;99.90;;;;;;5051965;28;20119;-67
2023/09/13 05:18:45;;;;;;;99.20;37.72;;;18.20;99.90;;;;;;5053402;28;20108;-67
2023/09/13 05:21:12;;;;;;;94.78;37.67;;;18.20;99.90;;;;;;5022081;28;20115;-67
2023/09/13 05:23:38;;;;;;;94.07;38.90;;;18.20;99.90;;;;;;5036803;28;20490;-67
2023/09/13 05:26:04;;;;;;;85.85;35.97;;;18.20;99.90;;;;;;5053379;28;20036;-66
2023/09/13 05:28:33;;;;;;;91.18;36.53;;;18.20;99.90;;;;;;5053473;28;20041;-67
2023/09/13 05:31:03;;;;;;;89.75;36.50;;;18.20;99.90;;;;;;5051354;28;20074;-67
2023/09/13 05:33:29;;;;;;;84.97;35.17;;;18.20;99.90;;;;;;5053506;28;20021;-67
2023/09/13 05:35:55;;;;;;;95.80;37.60;;;18.20;99.90;;;;;;5055494;28;20037;-67
2023/09/13 05:38:21;;;;;;;91.70;37.05;;;18.20;99.90;;;;;;5051946;28;20040;-67
2023/09/13 05:40:47;;;;;;;86.00;36.17;;;18.20;99.90;;;;;;5056576;28;20039;-67
2023/09/13 05:43:12;;;;;;;94.43;37.50;;;18.20;99.90;;;;;;5058188;28;20478;-67
2023/09/13 05:45:39;;;;;;;91.30;39.10;;;18.20;99.90;;;;;;5050185;28;20096;-67
2023/09/13 05:48:05;;;;;;;100.63;38.03;;;18.10;99.90;;;;;;5052329;28;20409;-67
2023/09/13 05:50:30;;;;;;;87.35;35.72;;;18.10;99.90;;;;;;5050413;28;20025;-67
2023/09/13 05:52:56;;;;;;;89.10;35.42;;;18.10;99.90;;;;;;5052765;28;20513;-68
2023/09/13 05:55:22;;;;;;;91.30;35.75;;;18.10;99.90;;;;;;5050361;28;21438;-67
2023/09/13 05:57:49;;;;;;;86.28;37.08;;;18.10;99.90;;;;;;5054509;28;20063;-67
2023/09/13 06:00:15;;;;;;;81.70;34.58;;;18.10;99.90;;;;;;5036233;28;20469;-67
2023/09/13 06:02:41;;;;;;;82.97;34.83;;;18.10;99.90;;;;;;5049112;28;20025;-67
2023/09/13 06:05:09;;;;;;;86.15;34.72;;;18.10;99.90;;;;;;5048845;28;20043;-67
2023/09/13 06:07:35;;;;;;;81.65;32.05;;;18.10;99.90;;;;;;5035470;28;20025;-67
2023/09/13 06:10:01;;;;;;;79.93;32.63;;;18.10;99.90;;;;;;5054703;28;20037;-67
2023/09/13 06:12:26;;;;;;;81.78;31.77;;;18.00;99.90;;;;;;5052113;28;20389;-67
2023/09/13 06:14:55;;;;;;;68.63;31.58;;;18.00;99.90;;;;;;5034127;28;20029;-67
2023/09/13 06:17:21;;;;;;;69.03;31.13;;;18.00;99.90;;;;;;5048987;28;20028;-67
2023/09/13 06:19:48;;;;;;;71.10;32.38;;;18.00;99.90;;;;;;5052210;28;20447;-68
2023/09/13 06:22:14;;;;;;;70.70;29.05;;;18.00;99.90;;;;;;5055313;28;20539;-67
2023/09/13 06:24:39;;;;;;;63.95;29.80;;;18.10;99.90;;;;;;5037436;28;20029;-67
2023/09/13 06:27:05;;;;;;;64.55;28.85;;;18.10;99.90;;;;;;5038527;28;20421;-67
2023/09/13 06:29:30;;;;;;;59.33;29.10;;;18.20;99.90;;;;;;5050579;28;20154;-67
2023/09/13 06:31:56;;;;;;;53.88;26.92;;;18.30;99.90;;;;;;5047666;28;20039;-66
2023/09/13 06:34:22;;;;;;;54.22;27.60;;;18.30;99.90;;;;;;5050965;28;20879;-68
2023/09/13 06:36:50;;;;;;;58.95;28.52;;;18.40;99.90;;;;;;5034254;28;20029;-66
2023/09/13 06:39:18;;;;;;;57.25;27.58;;;18.30;99.90;;;;;;5048331;28;20017;-67
2023/09/13 06:41:43;;;;;;;55.42;28.05;;;18.30;99.90;;;;;;5050187;28;20054;-66
2023/09/13 06:44:09;;;;;;;54.65;27.08;;;18.40;99.90;;;;;;5048563;28;20067;-67
2023/09/13 06:46:36;;;;;;;55.50;27.33;;;18.30;99.90;;;;;;5032457;28;20461;-67
2023/09/13 06:49:03;;;;;;;51.65;27.42;;;18.30;99.90;;;;;;5046905;28;20753;-67
2023/09/13 06:51:29;;;;;;;56.05;26.90;;;18.30;99.90;;;;;;5051323;28;20029;-67
2023/09/13 06:53:54;;;;;;;54.13;26.52;;;18.30;99.90;;;;;;5052560;28;20113;-67
2023/09/13 06:56:20;;;;;;;46.53;25.48;;;18.30;99.90;;;;;;5054985;28;20106;-67
2023/09/13 06:58:45;;;;;;;53.17;25.23;;;18.30;99.90;;;;;;5052250;28;20033;-68
2023/09/13 07:01:12;;;;;;;45.20;23.67;;;18.30;99.90;;;;;;5053467;28;21243;-68
2023/09/13 07:03:38;;;;;;;42.67;24.13;;;18.40;99.90;;;;;;5049671;28;20028;-67
2023/09/13 07:06:04;;;;;;;46.00;23.17;;;18.40;99.90;;;;;;5051143;28;20033;-67
2023/09/13 07:08:29;;;;;;;48.22;24.73;;;18.40;99.90;;;;;;5055314;28;20021;-67
2023/09/13 07:10:55;;;;;;;40.58;22.67;;;18.40;99.90;;;;;;5052046;28;20040;-67
2023/09/13 07:13:21;;;;;;;46.58;22.52;;;18.40;99.90;;;;;;5051946;28;20136;-67
2023/09/13 07:15:47;;;;;;;39.17;21.98;;;18.50;99.90;;;;;;5052392;28;20052;-67
2023/09/13 07:18:13;;;;;;;39.35;21.08;;;18.50;99.90;;;;;;5050983;28;20114;-67
2023/09/13 07:20:38;;;;;;;34.58;20.42;;;18.40;99.90;;;;;;5052870;28;20048;-67
2023/09/13 07:23:04;;;;;;;41.88;21.55;;;18.40;99.90;;;;;;5055676;28;20019;-67
2023/09/13 07:25:30;;;;;;;40.80;20.33;;;18.50;99.90;;;;;;5055290;28;20673;-67
2023/09/13 07:27:55;;;;;;;37.72;21.05;;;18.50;99.90;;;;;;5035910;28;20055;-67
2023/09/13 07:30:21;;;;;;;34.58;20.05;;;18.60;99.90;;;;;;5049445;28;20525;-67
2023/09/13 07:32:49;;;;;;;40.95;20.55;;;18.60;99.90;;;;;;5053826;28;20151;-67
2023/09/13 07:35:15;;;;;;;35.65;20.75;;;18.60;99.90;;;;;;5055491;28;20087;-67
2023/09/13 07:37:41;;;;;;;35.97;19.40;;;18.60;99.90;;;;;;5057029;28;20075;-68
2023/09/13 07:40:07;;;;;;;33.70;19.05;;;18.70;99.90;;;;;;5050364;28;20024;-67
2023/09/13 07:42:32;;;;;;;36.05;19.08;;;18.80;99.90;;;;;;5049769;28;20195;-67
2023/09/13 07:44:58;;;;;;;29.63;18.77;;;18.80;99.90;;;;;;5038295;28;20521;-67
2023/09/13 07:47:26;;;;;;;30.13;19.23;;;18.90;99.90;;;;;;5051201;28;20028;-66
2023/09/13 07:49:51;;;;;;;30.92;18.20;;;19.00;99.90;;;;;;5046849;28;20124;-67
2023/09/13 07:52:17;;;;;;;32.72;19.13;;;18.90;99.90;;;;;;5052000;28;20155;-67
2023/09/13 07:54:43;;;;;;;32.38;18.33;;;19.00;99.90;;;;;;5052246;28;20040;-67
2023/09/13 07:57:08;;;;;;;35.88;17.83;;;19.00;99.90;;;;;;5049500;28;20033;-67
2023/09/13 07:59:34;;;;;;;34.88;19.48;;;19.10;99.90;;;;;;5054580;28;20077;-67
2023/09/13 08:02:00;;;;;;;29.17;17.23;;;19.10;99.90;;;;;;5048954;28;20055;-67
2023/09/13 08:04:25;;;;;;;30.25;18.67;;;19.10;99.90;;;;;;5053418;28;20593;-68
2023/09/13 08:06:51;;;;;;;31.55;18.00;;;19.00;99.90;;;;;;5053094;28;20100;-67
2023/09/13 08:09:16;;;;;;;29.17;18.65;;;18.90;99.90;;;;;;5058933;28;20066;-67
2023/09/13 08:11:44;;;;;;;36.33;19.30;;;18.90;99.90;;;;;;5052169;28;20570;-67
2023/09/13 08:14:10;;;;;;;29.38;17.60;;;18.90;99.90;;;;;;5057859;28;20128;-68
2023/09/13 08:16:36;;;;;;;31.58;18.20;;;18.80;99.90;;;;;;5058046;28;20100;-67
2023/09/13 08:19:02;;;;;;;33.45;17.98;;;18.90;99.90;;;;;;5053092;28;20116;-67
2023/09/13 08:21:27;;;;;;;28.83;17.50;;;18.90;99.90;;;;;;5057472;28;20028;-67
2023/09/13 08:23:53;;;;;;;31.23;17.60;;;18.90;99.90;;;;;;5054848;28;20048;-67
2023/09/13 08:26:18;;;;;;;31.35;18.25;;;18.90;99.90;;;;;;5059960;28;20025;-67
2023/09/13 08:28:45;;;;;;;31.63;17.48;;;19.00;99.90;;;;;;5042013;28;20052;-67
2023/09/13 08:31:11;;;;;;;31.52;17.33;;;18.90;99.90;;;;;;5056205;28;20066;-68
2023/09/13 08:33:36;;;;;;;33.47;17.15;;;19.00;99.90;;;;;;5054507;28;20032;-67
2023/09/13 08:36:02;;;;;;;31.13;18.42;;;19.30;99.90;;;;;;5054533;28;20107;-68
2023/09/13 08:38:28;;;;;;;28.52;16.45;;;19.40;99.90;;;;;;5042841;28;20696;-68
2023/09/13 08:40:54;;;;;;;24.45;14.95;;;19.70;99.90;;;;;;5051137;28;20037;-65
2023/09/13 08:43:21;;;;;;;25.25;16.17;;;20.20;99.90;;;;;;5054842;28;20032;-68
2023/09/13 08:45:48;;;;;;;25.55;15.52;;;20.40;99.90;;;;;;5056221;28;20024;-67
2023/09/13 08:48:16;;;;;;;28.13;15.60;;;20.60;99.90;;;;;;5056282;28;20078;-67
2023/09/13 08:50:42;;;;;;;23.35;15.07;;;20.90;99.90;;;;;;5055602;28;20048;-67
2023/09/13 08:53:10;;;;;;;24.30;15.18;;;21.20;99.90;;;;;;5052492;28;20055;-67
2023/09/13 08:55:37;;;;;;;22.27;14.10;;;21.30;99.90;;;;;;5052684;28;20025;-67
2023/09/13 08:58:03;;;;;;;21.38;13.55;;;21.60;99.90;;;;;;5053555;28;20563;-65
2023/09/13 09:00:33;;;;;;;23.55;14.15;;;22.00;99.90;;;;;;5051680;28;20016;-66
2023/09/13 09:03:02;;;;;;;20.08;11.98;;;22.10;99.90;;;;;;5051528;28;20028;-65
2023/09/13 09:05:30;;;;;;;20.70;13.07;;;21.90;99.90;;;;;;5053601;28;20027;-64
2023/09/13 09:07:57;;;;;;;26.77;14.40;;;21.60;99.90;;;;;;5055080;28;20404;-67
2023/09/13 09:10:24;;;;;;;23.52;13.55;;;21.10;99.90;;;;;;5034330;28;20021;-67
2023/09/13 09:12:52;;;;;;;25.42;15.60;;;20.90;99.90;;;;;;5058126;28;20033;-67
2023/09/13 09:15:19;;;;;;;22.65;14.57;;;20.70;99.90;;;;;;5053955;28;20494;-67
2023/09/13 09:17:48;;;;;;;24.70;14.75;;;20.50;99.90;;;;;;5052853;28;20041;-67
2023/09/13 09:20:14;;;;;;;21.42;14.68;;;20.20;99.90;;;;;;5051806;28;20391;-64
2023/09/13 09:22:41;;;;;;;23.50;13.82;;;20.00;99.90;;;;;;5053727;28;20437;-68
2023/09/13 09:25:11;;;;;;;28.17;15.65;;;20.00;99.90;;;;;;5052475;28;20067;-67
2023/09/13 09:27:38;;;;;;;21.45;13.10;;;20.00;99.90;;;;;;5054222;28;20028;-66
2023/09/13 09:30:07;;;;;;;27.23;13.63;;;20.20;99.90;;;;;;5047565;28;20048;-71
2023/09/13 09:32:38;;;;;;;22.55;12.80;;;20.30;99.90;;;;;;5035069;28;20041;-68
2023/09/13 09:35:07;;;;;;;20.10;13.10;;;20.40;99.90;;;;;;5053933;28;20029;-67
2023/09/13 09:37:34;;;;;;;22.02;13.45;;;20.40;99.90;;;;;;5035690;28;20428;-66
2023/09/13 09:40:00;;;;;;;23.85;13.63;;;20.30;99.90;;;;;;5058059;28;20373;-67
2023/09/13 09:42:26;;;;;;;21.15;13.80;;;20.00;99.90;;;;;;5051150;28;20074;-67
2023/09/13 09:44:52;;;;;;;24.33;13.93;;;19.90;99.90;;;;;;5045999;28;20129;-67
2023/09/13 09:47:19;;;;;;;20.63;12.38;;;19.80;99.90;;;;;;5055183;28;20134;-67
2023/09/13 09:49:49;;;;;;;28.70;13.75;;;19.80;99.90;;;;;;5032475;28;21657;-67
2023/09/13 09:52:15;;;;;;;21.50;13.60;;;19.90;99.90;;;;;;5037576;28;20037;-66
2023/09/13 09:54:49;;;;;;;18.20;12.15;;;19.90;99.90;;;;;;5055843;28;20710;-67
2023/09/13 09:57:20;;;;;;;;;;;19.80;99.90;;;;;;5054310;28;20029;-67
2023/09/13 09:59:46;;;;;;;19.38;11.75;;;19.80;99.90;;;;;;5054340;28;20549;-67
2023/09/13 10:02:12;;;;;;;24.90;14.25;;;20.00;99.90;;;;;;5051855;28;20028;-67
2023/09/13 10:04:50;;;;;;;25.58;13.30;;;20.30;99.90;;;;;;5052174;28;20537;-66
2023/09/13 10:07:16;;;;;;;20.73;11.95;;;20.60;99.90;;;;;;5053323;28;20068;-67
2023/09/13 10:09:43;;;;;;;17.55;10.98;;;20.90;99.90;;;;;;5050784;28;20060;-67
2023/09/13 10:12:10;;;;;;;20.95;10.80;;;21.40;99.90;;;;;;5054186;28;20099;-66
2023/09/13 10:14:38;;;;;;;19.50;10.98;;;21.50;99.90;;;;;;5046421;28;20063;-67
2023/09/13 10:17:04;;;;;;;18.05;10.45;;;21.60;99.90;;;;;;5047806;28;20024;-64
2023/09/13 10:19:31;;;;;;;19.05;11.57;;;21.60;99.90;;;;;;5032874;28;20086;-64
2023/09/13 10:21:57;;;;;;;17.15;10.43;;;21.80;99.90;;;;;;5044611;28;20104;-65
2023/09/13 10:24:25;;;;;;;15.73;10.15;;;22.00;99.90;;;;;;5055672;28;20457;-67
2023/09/13 10:26:54;;;;;;;21.13;11.00;;;22.20;99.90;;;;;;5055353;28;20025;-67
2023/09/13 10:29:53;;;;;;;18.00;10.40;;;22.30;99.90;;;;;;5036410;28;20032;-66
2023/09/13 10:32:19;;;;;;;15.65;10.23;;;22.40;99.90;;;;;;5044446;28;20041;-67
2023/09/13 10:34:53;;;;;;;18.88;9.43;;;22.10;99.90;;;;;;5049805;28;20043;-64
2023/09/13 10:37:27;;;;;;;16.75;9.45;;;22.30;99.90;;;;;;5054556;28;20033;-67
2023/09/13 10:40:17;;;;;;;17.80;9.13;;;22.30;99.90;;;;;;5052493;28;20032;-67
2023/09/13 10:42:44;;;;;;;18.73;9.98;;;22.20;99.90;;;;;;5052303;28;20025;-67
2023/09/13 10:45:14;;;;;;;24.58;9.10;;;22.10;99.90;;;;;;5050585;28;20060;-64
2023/09/13 10:47:40;;;;;;;13.77;9.52;;;21.90;99.90;;;;;;5051125;28;20070;-65
2023/09/13 10:50:07;;;;;;;13.35;8.85;;;21.90;99.90;;;;;;5051191;28;20389;-65
2023/09/13 10:52:34;;;;;;;17.55;9.00;;;21.70;99.90;;;;;;5051745;28;20029;-67
2023/09/13 10:55:04;;;;;;;17.45;8.52;;;21.70;99.90;;;;;;5053989;28;20072;-65
2023/09/13 10:57:31;;;;;;;14.90;8.30;;;21.70;99.90;;;;;;5042991;28;20139;-64
2023/09/13 10:59:58;;;;;;;13.43;8.38;;;21.60;99.90;;;;;;5036014;28;20025;-65
2023/09/13 11:02:23;;;;;;;16.70;8.15;;;21.60;99.90;;;;;;5051674;28;20028;-67
2023/09/13 11:04:50;;;;;;;14.43;8.63;;;21.80;99.90;;;;;;5052843;28;20742;-65
2023/09/13 11:07:15;;;;;;;13.07;8.75;;;21.80;99.90;;;;;;5054789;28;20024;-64
2023/09/13 11:09:42;;;;;;;16.35;9.27;;;21.60;99.90;;;;;;5055026;28;20470;-64
2023/09/13 11:12:12;;;;;;;14.10;7.53;;;21.40;99.90;;;;;;5045384;28;20064;-67
2023/09/13 11:14:42;;;;;;;15.70;8.48;;;21.30;99.90;;;;;;5047977;28;20400;-68
2023/09/13 11:17:37;;;;;;;14.27;7.38;;;21.40;99.90;;;;;;5050550;28;20028;-67
2023/09/13 11:20:34;;;;;;;14.52;7.97;;;21.50;99.90;;;;;;5031760;28;20522;-64
2023/09/13 11:23:01;;;;;;;13.02;6.75;;;21.70;99.90;;;;;;5034780;28;20035;-65
2023/09/13 11:25:34;;;;;;;13.23;6.97;;;21.90;99.90;;;;;;5033875;28;20041;-66
2023/09/13 11:28:02;;;;;;;13.00;7.60;;;22.20;99.90;;;;;;5048662;28;20029;-65
2023/09/13 11:30:48;;;;;;;10.43;6.40;;;22.20;99.90;;;;;;5037224;28;20666;-64
2023/09/13 11:33:14;;;;;;;10.25;7.25;;;22.50;99.90;;;;;;5044919;28;20041;-65
2023/09/13 11:35:40;;;;;;;9.35;5.93;;;22.60;99.90;;;;;;5044486;28;20032;-65
2023/09/13 11:38:07;;;;;;;12.80;7.03;;;22.70;99.90;;;;;;5053368;28;20119;-64
2023/09/13 11:40:33;;;;;;;10.65;5.38;;;22.80;99.90;;;;;;5048678;28;20044;-65
2023/09/13 11:43:00;;;;;;;16.25;6.40;;;22.70;99.90;;;;;;5045312;28;20119;-64
2023/09/13 11:45:33;;;;;;;10.43;5.68;;;22.60;99.90;;;;;;5046766;28;20123;-64
2023/09/13 11:48:00;;;;;;;15.57;6.55;;;22.80;99.90;;;;;;5044987;28;20025;-65
2023/09/13 11:50:38;;;;;;;11.90;6.43;;;22.80;99.90;;;;;;5045731;28;20123;-64
2023/09/13 11:53:20;;;;;;;13.15;6.07;;;22.50;99.90;;;;;;5042409;28;20025;-68
2023/09/13 11:55:55;;;;;;;16.85;6.47;;;22.60;99.90;;;;;;5048870;28;21821;-64
2023/09/13 11:58:34;;;;;;;11.23;5.20;;;22.70;99.90;;;;;;5050804;28;20029;-65
2023/09/13 12:01:03;;;;;;;10.73;5.13;;;22.80;99.90;;;;;;5047273;28;20036;-66
2023/09/13 12:03:29;;;;;;;8.45;5.07;;;22.80;99.90;;;;;;5030537;28;20409;-67
2023/09/13 12:05:56;;;;;;;9.07;4.90;;;22.70;99.90;;;;;;5047339;28;20067;-66
2023/09/13 12:08:27;;;;;;;8.48;4.88;;;22.60;99.90;;;;;;5050836;28;20090;-65
2023/09/13 12:10:58;;;;;;;11.00;5.38;;;22.70;99.90;;;;;;5048193;28;20036;-65
2023/09/13 12:13:44;;;;;;;7.88;4.45;;;22.80;99.90;;;;;;5043365;28;20516;-65
2023/09/13 12:16:10;;;;;;;10.52;5.00;;;22.80;99.90;;;;;;5050429;28;20033;-65
2023/09/13 12:18:37;;;;;;;12.82;4.13;;;22.80;99.90;;;;;;5055518;28;20028;-66
2023/09/13 12:21:03;;;;;;;11.65;3.80;;;23.00;99.90;;;;;;5054993;28;20036;-65
2023/09/13 12:23:36;;;;;;;7.43;4.30;;;23.20;99.90;;;;;;5054665;28;20033;-65
2023/09/13 12:26:03;;;;;;;;;;;23.10;99.90;;;;;;5059364;28;20494;-65
2023/09/13 12:28:35;;;;;;;8.02;3.88;;;23.10;99.90;;;;;;5051662;28;19923;-66
2023/09/13 12:31:21;;;;;;;10.07;4.47;;;23.20;99.90;;;;;;5052991;28;20036;-65